createdAt,value
2019-02-15T00:00:01.548Z,3.5
2019-02-15T00:00:09.433Z,3.5
2019-02-15T00:00:17.300Z,3.5
2019-02-15T00:00:25.242Z,3.4
2019-02-15T00:00:33.138Z,3.4
2019-02-15T00:00:41.048Z,3.5
2019-02-15T00:00:48.952Z,3.3
2019-02-15T00:00:56.828Z,3.3
2019-02-15T00:01:04.723Z,3
2019-02-15T00:01:12.685Z,3
2019-02-15T00:01:21.563Z,2.9
2019-02-15T00:01:29.449Z,3.1
2019-02-15T00:01:38.327Z,3.2
2019-02-15T00:01:46.237Z,3.4
2019-02-15T00:01:54.146Z,3.5
2019-02-15T00:02:03.021Z,3.4
2019-02-15T00:02:10.913Z,3.3
2019-02-15T00:02:18.795Z,3.2
2019-02-15T00:02:26.713Z,3.1
2019-02-15T00:02:34.626Z,3.2
2019-02-15T00:02:42.506Z,3.3
2019-02-15T00:02:50.398Z,3.5
2019-02-15T00:02:58.283Z,3.5
2019-02-15T00:03:06.181Z,3.4
2019-02-15T00:03:14.063Z,3.4
2019-02-15T00:03:21.941Z,3.2
2019-02-15T00:03:30.821Z,3.1
2019-02-15T00:03:38.694Z,3.1
2019-02-15T00:03:46.557Z,3.3
2019-02-15T00:03:54.459Z,3.3
2019-02-15T00:04:02.335Z,3.3
2019-02-15T00:04:10.213Z,3.3
2019-02-15T00:04:18.159Z,3.4
2019-02-15T00:04:27.046Z,3.4
2019-02-15T00:04:34.941Z,3.3
2019-02-15T00:04:42.841Z,3.2
2019-02-15T00:04:50.706Z,3.2
2019-02-15T00:04:58.603Z,3.3
2019-02-15T00:05:06.535Z,3.4
2019-02-15T00:05:14.439Z,3.4
2019-02-15T00:05:22.335Z,3.5
2019-02-15T00:05:30.202Z,3.3
2019-02-15T00:05:38.085Z,3.3
2019-02-15T00:05:45.960Z,3.2
2019-02-15T00:05:53.828Z,3.3
2019-02-15T00:06:01.755Z,3.4
2019-02-15T00:06:09.628Z,3.4
2019-02-15T00:06:17.530Z,3.4
2019-02-15T00:06:25.409Z,3.3
2019-02-15T00:06:33.294Z,3.4
2019-02-15T00:06:41.165Z,3.4
2019-02-15T00:06:49.065Z,3.5
2019-02-15T00:06:58.934Z,3.6
2019-02-15T00:07:06.809Z,3.5
2019-02-15T00:07:14.700Z,3.5
2019-02-15T00:07:22.577Z,3.3
2019-02-15T00:07:30.443Z,3.4
2019-02-15T00:07:38.322Z,3.4
2019-02-15T00:07:46.233Z,3.3
2019-02-15T00:07:54.119Z,3.4
2019-02-15T00:08:02.036Z,3.1
2019-02-15T00:08:09.930Z,3.3
2019-02-15T00:08:17.848Z,3.4
2019-02-15T00:08:25.745Z,3.4
2019-02-15T00:08:34.630Z,3.3
2019-02-15T00:08:42.496Z,3.3
2019-02-15T00:08:50.374Z,3.3
2019-02-15T00:08:58.281Z,3.2
2019-02-15T00:09:06.148Z,3.3
2019-02-15T00:09:15.037Z,3.3
2019-02-15T00:09:22.913Z,3.5
2019-02-15T00:09:30.814Z,3.6
2019-02-15T00:09:38.702Z,3.6
2019-02-15T00:09:46.571Z,3.5
2019-02-15T00:09:54.446Z,3.7
2019-02-15T00:10:02.356Z,3.6
2019-02-15T00:10:10.253Z,3.5
2019-02-15T00:10:18.143Z,3.4
2019-02-15T00:10:26.018Z,3.4
2019-02-15T00:10:33.920Z,3.4
2019-02-15T00:10:41.786Z,3.3
2019-02-15T00:10:50.671Z,3.4
2019-02-15T00:10:58.555Z,3.3
2019-02-15T00:11:06.465Z,3.3
2019-02-15T00:11:14.388Z,3.3
2019-02-15T00:11:22.297Z,3.3
2019-02-15T00:11:30.180Z,3.1
2019-02-15T00:11:38.040Z,3.1
2019-02-15T00:11:45.932Z,3.2
2019-02-15T00:11:53.808Z,3
2019-02-15T00:12:01.695Z,3
2019-02-15T00:12:09.587Z,3.1
2019-02-15T00:12:17.461Z,3.1
2019-02-15T00:12:25.359Z,3.2
2019-02-15T00:12:34.211Z,3.2
2019-02-15T00:12:42.097Z,3.4
2019-02-15T00:12:49.990Z,3.5
2019-02-15T00:12:57.849Z,3.4
2019-02-15T00:13:13.205Z,3.4
2019-02-15T00:13:17.602Z,3.1
2019-02-15T00:13:25.566Z,3
2019-02-15T00:13:33.439Z,3.1
2019-02-15T00:13:41.317Z,3.2
2019-02-15T00:13:49.185Z,3.3
2019-02-15T00:13:57.063Z,3.4
2019-02-15T00:14:04.965Z,3.4
2019-02-15T00:14:12.861Z,3.4
2019-02-15T00:14:20.752Z,3.2
2019-02-15T00:14:28.610Z,3.2
2019-02-15T00:14:36.515Z,3.5
2019-02-15T00:14:44.414Z,3.5
2019-02-15T00:14:52.297Z,3.5
2019-02-15T00:15:00.285Z,3.4
2019-02-15T00:15:08.056Z,3.4
2019-02-15T00:15:15.943Z,3.3
2019-02-15T00:15:23.816Z,3.4
2019-02-15T00:15:31.703Z,3.2
2019-02-15T00:15:39.627Z,3.2
2019-02-15T00:15:47.534Z,3.4
2019-02-15T00:15:55.463Z,3.4
2019-02-15T00:16:04.327Z,3.5
2019-02-15T00:16:12.213Z,3.5
2019-02-15T00:16:20.101Z,3.4
2019-02-15T00:16:28.016Z,3.4
2019-02-15T00:16:35.896Z,3.3
2019-02-15T00:16:43.852Z,3
2019-02-15T00:16:51.727Z,3
2019-02-15T00:17:00.403Z,3.2
2019-02-15T00:17:08.297Z,3.2
2019-02-15T00:17:16.205Z,3.4
2019-02-15T00:17:24.076Z,3.5
2019-02-15T00:17:31.949Z,3.6
2019-02-15T00:17:39.805Z,3.7
2019-02-15T00:17:47.695Z,3.5
2019-02-15T00:17:55.600Z,3.4
2019-02-15T00:18:03.521Z,3.2
2019-02-15T00:18:11.400Z,3.2
2019-02-15T00:18:19.287Z,3.3
2019-02-15T00:18:27.163Z,3.4
2019-02-15T00:18:37.037Z,3.4
2019-02-15T00:18:44.934Z,3.5
2019-02-15T00:18:52.834Z,3.5
2019-02-15T00:19:01.739Z,3.5
2019-02-15T00:19:09.675Z,3.5
2019-02-15T00:19:17.605Z,3.5
2019-02-15T00:19:25.493Z,3.5
2019-02-15T00:19:33.397Z,3.5
2019-02-15T00:19:41.263Z,3.6
2019-02-15T00:19:50.119Z,3.4
2019-02-15T00:19:58.025Z,3.3
2019-02-15T00:20:05.935Z,3.3
2019-02-15T00:20:13.807Z,3.2
2019-02-15T00:20:21.686Z,3.3
2019-02-15T00:20:29.572Z,3.3
2019-02-15T00:20:37.481Z,3.3
2019-02-15T00:20:45.342Z,3.4
2019-02-15T00:20:53.236Z,3.5
2019-02-15T00:21:02.168Z,3.5
2019-02-15T00:21:09.998Z,3.5
2019-02-15T00:21:17.890Z,3.4
2019-02-15T00:21:25.775Z,3.3
2019-02-15T00:21:33.649Z,3.2
2019-02-15T00:21:41.530Z,3.2
2019-02-15T00:21:49.390Z,3.2
2019-02-15T00:21:57.291Z,3.3
2019-02-15T00:22:05.191Z,3.3
2019-02-15T00:22:13.115Z,3.4
2019-02-15T00:22:20.993Z,3.4
2019-02-15T00:22:28.874Z,3.3
2019-02-15T00:22:36.785Z,3.5
2019-02-15T00:22:44.698Z,3.4
2019-02-15T00:22:52.585Z,3.2
2019-02-15T00:23:00.479Z,3.3
2019-02-15T00:23:08.347Z,3.1
2019-02-15T00:23:16.275Z,3.2
2019-02-15T00:23:24.161Z,3.2
2019-02-15T00:23:32.054Z,3.3
2019-02-15T00:23:39.939Z,3.3
2019-02-15T00:23:47.827Z,3.3
2019-02-15T00:23:55.705Z,3.2
2019-02-15T00:24:03.704Z,3.3
2019-02-15T00:24:12.586Z,3.3
2019-02-15T00:24:20.464Z,3.3
2019-02-15T00:24:28.337Z,3.4
2019-02-15T00:24:36.241Z,3.4
2019-02-15T00:24:44.132Z,3.3
2019-02-15T00:24:52.016Z,3.4
2019-02-15T00:24:59.893Z,3.3
2019-02-15T00:25:07.767Z,3.2
2019-02-15T00:25:15.671Z,3.3
2019-02-15T00:25:23.585Z,3.2
2019-02-15T00:25:31.525Z,3.4
2019-02-15T00:25:39.403Z,3.3
2019-02-15T00:25:48.296Z,3.3
2019-02-15T00:25:56.201Z,3.2
2019-02-15T00:26:04.099Z,3.2
2019-02-15T00:26:11.979Z,3.2
2019-02-15T00:26:20.885Z,3.1
2019-02-15T00:26:28.797Z,3.2
2019-02-15T00:26:36.687Z,3.3
2019-02-15T00:26:44.563Z,3.4
2019-02-15T00:26:52.419Z,3.4
2019-02-15T00:27:00.335Z,3.3
2019-02-15T00:27:08.259Z,3.4
2019-02-15T00:27:16.110Z,3.4
2019-02-15T00:27:23.981Z,3.4
2019-02-15T00:27:31.855Z,3.2
2019-02-15T00:27:39.741Z,3.1
2019-02-15T00:27:47.615Z,3.1
2019-02-15T00:27:55.503Z,3.3
2019-02-15T00:28:03.389Z,3.3
2019-02-15T00:28:11.273Z,3.3
2019-02-15T00:28:19.156Z,3.3
2019-02-15T00:28:27.047Z,3.4
2019-02-15T00:28:34.950Z,3.4
2019-02-15T00:28:43.811Z,3.4
2019-02-15T00:28:51.717Z,3.5
2019-02-15T00:28:59.591Z,3.4
2019-02-15T00:29:07.490Z,3.4
2019-02-15T00:29:15.366Z,3.2
2019-02-15T00:29:24.233Z,3.2
2019-02-15T00:29:32.115Z,3.1
2019-02-15T00:29:40.000Z,3.2
2019-02-15T00:29:47.945Z,3.3
2019-02-15T00:29:56.804Z,3.2
2019-02-15T00:30:05.701Z,3.4
2019-02-15T00:30:13.581Z,3.3
2019-02-15T00:30:22.473Z,3.2
2019-02-15T00:30:30.334Z,3.5
2019-02-15T00:30:38.197Z,3.4
2019-02-15T00:30:46.102Z,3.4
2019-02-15T00:30:53.981Z,3.4
2019-02-15T00:31:01.869Z,3.2
2019-02-15T00:31:09.791Z,3.2
2019-02-15T00:31:17.691Z,3.2
2019-02-15T00:31:25.555Z,3.2
2019-02-15T00:31:34.479Z,3.3
2019-02-15T00:31:42.352Z,3.3
2019-02-15T00:31:50.230Z,3.3
2019-02-15T00:31:58.115Z,3.2
2019-02-15T00:32:06.024Z,3.1
2019-02-15T00:32:14.850Z,3.2
2019-02-15T00:32:22.727Z,3.4
2019-02-15T00:32:30.614Z,3.4
2019-02-15T00:32:38.477Z,3.3
2019-02-15T00:32:46.357Z,3.4
2019-02-15T00:32:54.255Z,3.3
2019-02-15T00:33:02.156Z,3.3
2019-02-15T00:33:10.099Z,3.4
2019-02-15T00:33:18.037Z,3.3
2019-02-15T00:33:25.948Z,3.4
2019-02-15T00:33:33.821Z,3.5
2019-02-15T00:33:41.702Z,3.5
2019-02-15T00:33:49.585Z,3.5
2019-02-15T00:33:57.469Z,3.5
2019-02-15T00:34:06.379Z,3.4
2019-02-15T00:34:14.257Z,3.5
2019-02-15T00:34:22.159Z,3.6
2019-02-15T00:34:31.042Z,3.5
2019-02-15T00:34:38.927Z,3.4
2019-02-15T00:34:46.787Z,3.1
2019-02-15T00:34:54.651Z,3.2
2019-02-15T00:35:02.565Z,3.2
2019-02-15T00:35:10.437Z,3.3
2019-02-15T00:35:18.383Z,3.6
2019-02-15T00:35:27.258Z,3.5
2019-02-15T00:35:35.142Z,3.5
2019-02-15T00:35:43.025Z,3.4
2019-02-15T00:35:51.912Z,3.1
2019-02-15T00:35:59.789Z,3.1
2019-02-15T00:36:07.687Z,3.1
2019-02-15T00:36:15.573Z,3.2
2019-02-15T00:36:23.429Z,3.2
2019-02-15T00:36:31.337Z,3.2
2019-02-15T00:36:39.209Z,3.2
2019-02-15T00:36:48.101Z,3.4
2019-02-15T00:36:55.960Z,3.6
2019-02-15T00:37:04.835Z,3.5
2019-02-15T00:37:12.720Z,3.6
2019-02-15T00:37:20.611Z,3.4
2019-02-15T00:37:28.477Z,3.2
2019-02-15T00:37:36.354Z,3.3
2019-02-15T00:37:44.263Z,3.3
2019-02-15T00:37:52.177Z,3.5
2019-02-15T00:38:00.047Z,3.5
2019-02-15T00:38:07.929Z,3.4
2019-02-15T00:38:15.841Z,3.5
2019-02-15T00:38:23.705Z,3.4
2019-02-15T00:38:31.601Z,3.4
2019-02-15T00:38:39.468Z,3.4
2019-02-15T00:38:47.359Z,3.4
2019-02-15T00:38:55.239Z,3.3
2019-02-15T00:39:03.139Z,3.2
2019-02-15T00:39:11.014Z,3.1
2019-02-15T00:39:18.895Z,3.3
2019-02-15T00:39:26.785Z,3.4
2019-02-15T00:39:35.739Z,3.4
2019-02-15T00:39:44.151Z,3.4
2019-02-15T00:39:52.041Z,3.2
2019-02-15T00:39:59.942Z,3.4
2019-02-15T00:40:08.851Z,3.5
2019-02-15T00:40:16.720Z,3.4
2019-02-15T00:40:24.616Z,3.5
2019-02-15T00:40:32.497Z,3.2
2019-02-15T00:40:40.351Z,3.2
2019-02-15T00:40:48.238Z,3.1
2019-02-15T00:40:56.131Z,3.2
2019-02-15T00:41:04.019Z,3.3
2019-02-15T00:41:11.912Z,3.3
2019-02-15T00:41:19.819Z,3.4
2019-02-15T00:41:27.680Z,3.3
2019-02-15T00:41:35.578Z,3.3
2019-02-15T00:41:43.438Z,3.4
2019-02-15T00:41:51.339Z,3.4
2019-02-15T00:41:59.268Z,3.4
2019-02-15T00:42:07.182Z,3.2
2019-02-15T00:42:15.072Z,3
2019-02-15T00:42:22.954Z,3.1
2019-02-15T00:42:30.849Z,3.1
2019-02-15T00:42:38.712Z,3.1
2019-02-15T00:42:46.575Z,3.3
2019-02-15T00:42:54.455Z,3.2
2019-02-15T00:43:02.338Z,3.3
2019-02-15T00:43:10.221Z,3.3
2019-02-15T00:43:22.603Z,3.5
2019-02-15T00:43:29.925Z,3.6
2019-02-15T00:43:37.810Z,3.6
2019-02-15T00:43:45.706Z,3.4
2019-02-15T00:43:53.590Z,3.4
2019-02-15T00:44:01.469Z,3.3
2019-02-15T00:44:09.382Z,3.4
2019-02-15T00:44:17.257Z,3.4
2019-02-15T00:44:25.162Z,3.4
2019-02-15T00:44:34.021Z,3.3
2019-02-15T00:44:41.904Z,3.2
2019-02-15T00:44:49.776Z,3.4
2019-02-15T00:44:57.664Z,3.5
2019-02-15T00:45:05.563Z,3.4
2019-02-15T00:45:13.443Z,3.4
2019-02-15T00:45:21.337Z,3.2
2019-02-15T00:45:29.222Z,3.1
2019-02-15T00:45:37.088Z,3
2019-02-15T00:45:44.972Z,3
2019-02-15T00:45:52.862Z,3.1
2019-02-15T00:46:00.726Z,3.3
2019-02-15T00:46:09.616Z,3.6
2019-02-15T00:46:18.520Z,3.5
2019-02-15T00:46:26.391Z,3.5
2019-02-15T00:46:34.292Z,3.5
2019-02-15T00:46:42.152Z,3.5
2019-02-15T00:46:50.069Z,3.7
2019-02-15T00:46:57.946Z,3.5
2019-02-15T00:47:05.817Z,3.4
2019-02-15T00:47:14.676Z,3.4
2019-02-15T00:47:22.558Z,3.2
2019-02-15T00:47:30.466Z,3.3
2019-02-15T00:47:38.355Z,3.4
2019-02-15T00:47:46.320Z,3.3
2019-02-15T00:47:54.197Z,3.4
2019-02-15T00:48:02.082Z,3.4
2019-02-15T00:48:09.964Z,3.3
2019-02-15T00:48:17.858Z,3.2
2019-02-15T00:48:25.754Z,3.4
2019-02-15T00:48:33.622Z,3.5
2019-02-15T00:48:41.491Z,3.4
2019-02-15T00:48:49.372Z,3.4
2019-02-15T00:48:57.251Z,3.4
2019-02-15T00:49:06.147Z,3.3
2019-02-15T00:49:14.031Z,3.3
2019-02-15T00:49:21.898Z,3.4
2019-02-15T00:49:29.776Z,3.5
2019-02-15T00:49:38.639Z,3.6
2019-02-15T00:49:46.529Z,3.5
2019-02-15T00:49:54.445Z,3.4
2019-02-15T00:50:04.356Z,3.3
2019-02-15T00:50:12.265Z,3.3
2019-02-15T00:50:20.157Z,3.3
2019-02-15T00:50:28.039Z,3.4
2019-02-15T00:50:35.909Z,3.5
2019-02-15T00:50:43.785Z,3.3
2019-02-15T00:50:51.662Z,3.4
2019-02-15T00:50:59.553Z,3.3
2019-02-15T00:51:08.429Z,3.1
2019-02-15T00:51:17.301Z,3.2
2019-02-15T00:51:25.205Z,3
2019-02-15T00:51:33.100Z,3
2019-02-15T00:51:40.990Z,2.9
2019-02-15T00:51:48.866Z,3
2019-02-15T00:51:56.713Z,3
2019-02-15T00:52:04.630Z,3.1
2019-02-15T00:52:12.495Z,3.1
2019-02-15T00:52:20.379Z,3.1
2019-02-15T00:52:28.260Z,3.2
2019-02-15T00:52:36.149Z,3.1
2019-02-15T00:52:44.072Z,3.2
2019-02-15T00:52:51.943Z,3.3
2019-02-15T00:53:00.848Z,3.3
2019-02-15T00:53:08.695Z,3.5
2019-02-15T00:53:17.579Z,3.4
2019-02-15T00:53:25.449Z,3.5
2019-02-15T00:53:33.388Z,3.5
2019-02-15T00:53:42.267Z,3.3
2019-02-15T00:53:50.178Z,3.1
2019-02-15T00:53:59.105Z,2.9
2019-02-15T00:54:06.984Z,3
2019-02-15T00:54:15.885Z,3.1
2019-02-15T00:54:23.796Z,3.3
2019-02-15T00:54:31.685Z,3.4
2019-02-15T00:54:39.556Z,3.4
2019-02-15T00:54:47.455Z,3.4
2019-02-15T00:54:55.408Z,3.4
2019-02-15T00:55:03.326Z,3.3
2019-02-15T00:55:11.179Z,3.3
2019-02-15T00:55:19.065Z,3.3
2019-02-15T00:55:27.942Z,3.3
2019-02-15T00:55:35.836Z,3.4
2019-02-15T00:55:43.726Z,3.5
2019-02-15T00:55:51.589Z,3.6
2019-02-15T00:55:59.464Z,3.6
2019-02-15T00:56:07.352Z,3.8
2019-02-15T00:56:15.220Z,3.5
2019-02-15T00:56:23.123Z,3.5
2019-02-15T00:56:30.988Z,3.4
2019-02-15T00:56:38.842Z,3.1
2019-02-15T00:56:46.710Z,3.3
2019-02-15T00:56:55.593Z,3.3
2019-02-15T00:57:03.483Z,3.3
2019-02-15T00:57:11.364Z,3.3
2019-02-15T00:57:19.258Z,3.3
2019-02-15T00:57:27.160Z,3.6
2019-02-15T00:57:36.058Z,3.7
2019-02-15T00:57:43.937Z,4
2019-02-15T00:57:51.815Z,3.7
2019-02-15T00:57:59.695Z,3.6
2019-02-15T00:58:07.576Z,3.5
2019-02-15T00:58:15.482Z,3.3
2019-02-15T00:58:23.380Z,3.3
2019-02-15T00:58:31.286Z,3.5
2019-02-15T00:58:39.148Z,3.4
2019-02-15T00:58:47.028Z,3.4
2019-02-15T00:58:54.920Z,3.3
2019-02-15T00:59:02.847Z,3.3
2019-02-15T00:59:10.725Z,3.3
2019-02-15T00:59:18.598Z,3.3
2019-02-15T00:59:26.474Z,3.4
2019-02-15T00:59:34.352Z,3.5
2019-02-15T00:59:42.211Z,3.4
2019-02-15T00:59:50.078Z,3.3
2019-02-15T00:59:57.948Z,3.4
2019-02-15T01:00:06.816Z,3.3
2019-02-15T01:00:14.694Z,3.5
2019-02-15T01:00:22.586Z,3.6
2019-02-15T01:00:30.466Z,3.6
2019-02-15T01:00:38.336Z,3.4
2019-02-15T01:00:46.223Z,3.4
2019-02-15T01:00:55.113Z,3.4
2019-02-15T01:01:02.986Z,3.5
2019-02-15T01:01:10.905Z,3.6
2019-02-15T01:01:19.776Z,3.8
2019-02-15T01:01:27.689Z,3.6
2019-02-15T01:01:35.581Z,3.5
2019-02-15T01:01:43.462Z,3.3
2019-02-15T01:01:52.336Z,3.5
2019-02-15T01:02:00.246Z,3.4
2019-02-15T01:02:08.134Z,3.5
2019-02-15T01:02:16.016Z,3.4
2019-02-15T01:02:23.904Z,3.5
2019-02-15T01:02:31.788Z,3.6
2019-02-15T01:02:39.666Z,3.5
2019-02-15T01:02:47.536Z,3.7
2019-02-15T01:02:55.441Z,3.5
2019-02-15T01:03:03.344Z,3.4
2019-02-15T01:03:11.224Z,3.3
2019-02-15T01:03:19.097Z,3.2
2019-02-15T01:03:27.015Z,3.4
2019-02-15T01:03:34.888Z,3.6
2019-02-15T01:03:42.786Z,3.7
2019-02-15T01:03:50.654Z,3.9
2019-02-15T01:03:58.535Z,3.8
2019-02-15T01:04:06.407Z,3.7
2019-02-15T01:04:14.312Z,3.5
2019-02-15T01:04:22.184Z,3.4
2019-02-15T01:04:30.045Z,3.3
2019-02-15T01:04:37.948Z,3.4
2019-02-15T01:04:45.815Z,3.2
2019-02-15T01:04:53.716Z,3.1
2019-02-15T01:05:02.576Z,3.1
2019-02-15T01:05:10.458Z,3.2
2019-02-15T01:05:18.392Z,3.1
2019-02-15T01:05:26.252Z,3.2
2019-02-15T01:05:34.136Z,3.3
2019-02-15T01:05:42.046Z,3.5
2019-02-15T01:05:49.958Z,3.6
2019-02-15T01:05:57.842Z,3.7
2019-02-15T01:06:05.713Z,3.4
2019-02-15T01:06:13.598Z,3.3
2019-02-15T01:06:21.552Z,3.4
2019-02-15T01:06:29.476Z,3.2
2019-02-15T01:06:37.356Z,3.4
2019-02-15T01:06:47.213Z,3.4
2019-02-15T01:06:55.098Z,3.4
2019-02-15T01:07:02.962Z,3.4
2019-02-15T01:07:10.852Z,3.4
2019-02-15T01:07:19.719Z,3.3
2019-02-15T01:07:27.582Z,3.4
2019-02-15T01:07:35.456Z,3.1
2019-02-15T01:07:43.341Z,3.2
2019-02-15T01:07:51.217Z,3.3
2019-02-15T01:07:59.114Z,3.4
2019-02-15T01:08:06.983Z,3.6
2019-02-15T01:08:14.844Z,3.6
2019-02-15T01:08:22.760Z,3.5
2019-02-15T01:08:30.643Z,3.3
2019-02-15T01:08:38.523Z,3.3
2019-02-15T01:08:46.398Z,3.4
2019-02-15T01:08:54.267Z,3.4
2019-02-15T01:09:02.152Z,3.5
2019-02-15T01:09:10.082Z,3.5
2019-02-15T01:09:17.968Z,3.5
2019-02-15T01:09:25.874Z,3.6
2019-02-15T01:09:33.821Z,3.6
2019-02-15T01:09:41.707Z,3.8
2019-02-15T01:09:49.556Z,3.7
2019-02-15T01:09:58.428Z,3.5
2019-02-15T01:10:06.343Z,3.4
2019-02-15T01:10:15.228Z,3.4
2019-02-15T01:10:23.094Z,3.4
2019-02-15T01:10:31.006Z,3.5
2019-02-15T01:10:39.933Z,3.5
2019-02-15T01:10:47.825Z,3.3
2019-02-15T01:10:55.714Z,3.4
2019-02-15T01:11:03.642Z,3.4
2019-02-15T01:11:11.542Z,3.5
2019-02-15T01:11:20.398Z,3.6
2019-02-15T01:11:28.326Z,3.7
2019-02-15T01:11:36.214Z,3.7
2019-02-15T01:11:44.110Z,3.5
2019-02-15T01:11:52.000Z,3.6
2019-02-15T01:11:59.876Z,3.4
2019-02-15T01:12:07.751Z,3.4
2019-02-15T01:12:15.607Z,3.4
2019-02-15T01:12:23.495Z,3.6
2019-02-15T01:12:31.378Z,3.6
2019-02-15T01:12:40.229Z,3.5
2019-02-15T01:12:48.088Z,3.4
2019-02-15T01:12:55.961Z,3.2
2019-02-15T01:13:03.840Z,3.2
2019-02-15T01:13:11.730Z,3.2
2019-02-15T01:13:20.677Z,3.2
2019-02-15T01:13:32.452Z,3.2
2019-02-15T01:13:42.366Z,3.2
2019-02-15T01:13:50.232Z,3.2
2019-02-15T01:13:58.080Z,3.2
2019-02-15T01:14:05.977Z,3.3
2019-02-15T01:14:13.870Z,3.5
2019-02-15T01:14:21.738Z,3.6
2019-02-15T01:14:29.636Z,3.5
2019-02-15T01:14:37.516Z,3.4
2019-02-15T01:14:45.414Z,3.2
2019-02-15T01:14:53.311Z,3.2
2019-02-15T01:15:01.197Z,3.2
2019-02-15T01:15:10.040Z,3.3
2019-02-15T01:15:17.906Z,3.6
2019-02-15T01:15:25.799Z,3.4
2019-02-15T01:15:33.658Z,3.5
2019-02-15T01:15:41.568Z,3.4
2019-02-15T01:15:49.433Z,3.4
2019-02-15T01:15:57.313Z,3.5
2019-02-15T01:16:05.206Z,3.5
2019-02-15T01:16:13.086Z,3.7
2019-02-15T01:16:20.974Z,3.6
2019-02-15T01:16:28.882Z,3.7
2019-02-15T01:16:36.753Z,3.7
2019-02-15T01:16:44.670Z,3.5
2019-02-15T01:16:53.540Z,3.3
2019-02-15T01:17:01.418Z,3.3
2019-02-15T01:17:09.294Z,3.2
2019-02-15T01:17:17.162Z,3.4
2019-02-15T01:17:25.043Z,3.5
2019-02-15T01:17:33.911Z,3.5
2019-02-15T01:17:41.800Z,3.4
2019-02-15T01:17:49.692Z,3.5
2019-02-15T01:17:57.602Z,3.5
2019-02-15T01:18:06.472Z,3.4
2019-02-15T01:18:14.334Z,3.3
2019-02-15T01:18:22.196Z,3.3
2019-02-15T01:18:30.065Z,3.1
2019-02-15T01:18:37.936Z,3.2
2019-02-15T01:18:45.816Z,3.2
2019-02-15T01:18:53.710Z,3.4
2019-02-15T01:19:01.616Z,3.6
2019-02-15T01:19:10.475Z,3.6
2019-02-15T01:19:18.364Z,3.9
2019-02-15T01:19:26.222Z,3.7
2019-02-15T01:19:34.101Z,3.6
2019-02-15T01:19:41.981Z,3.6
2019-02-15T01:19:49.870Z,3.6
2019-02-15T01:19:57.762Z,3.5
2019-02-15T01:20:05.642Z,3.5
2019-02-15T01:20:13.530Z,3.6
2019-02-15T01:20:21.410Z,3.6
2019-02-15T01:20:29.320Z,3.5
2019-02-15T01:20:37.228Z,3.5
2019-02-15T01:20:45.108Z,3.5
2019-02-15T01:20:53.018Z,3.5
2019-02-15T01:21:01.891Z,3.4
2019-02-15T01:21:09.770Z,3.8
2019-02-15T01:21:17.810Z,3.8
2019-02-15T01:21:25.775Z,3.8
2019-02-15T01:21:33.606Z,3.5
2019-02-15T01:21:41.512Z,3.3
2019-02-15T01:21:49.372Z,3.3
2019-02-15T01:21:57.254Z,3.3
2019-02-15T01:22:05.161Z,3.3
2019-02-15T01:22:14.067Z,3.4
2019-02-15T01:22:21.990Z,3.7
2019-02-15T01:22:29.843Z,3.8
2019-02-15T01:22:37.713Z,3.6
2019-02-15T01:22:45.588Z,3.7
2019-02-15T01:22:53.471Z,3.6
2019-02-15T01:23:01.356Z,3.5
2019-02-15T01:23:09.264Z,3.5
2019-02-15T01:23:17.160Z,3.6
2019-02-15T01:23:25.020Z,3.5
2019-02-15T01:23:32.930Z,3.4
2019-02-15T01:23:40.823Z,3.4
2019-02-15T01:23:48.706Z,3.3
2019-02-15T01:23:57.581Z,3.2
2019-02-15T01:24:05.468Z,3.2
2019-02-15T01:24:13.356Z,3.1
2019-02-15T01:24:21.252Z,3.2
2019-02-15T01:24:29.127Z,3.4
2019-02-15T01:24:36.984Z,3.5
2019-02-15T01:24:44.890Z,3.5
2019-02-15T01:24:52.780Z,3.6
2019-02-15T01:25:00.652Z,3.5
2019-02-15T01:25:08.531Z,3.5
2019-02-15T01:25:16.416Z,3.6
2019-02-15T01:25:24.325Z,3.5
2019-02-15T01:25:32.184Z,3.5
2019-02-15T01:25:40.076Z,3.4
2019-02-15T01:25:47.966Z,3.4
2019-02-15T01:25:55.840Z,3.5
2019-02-15T01:26:03.722Z,3.6
2019-02-15T01:26:11.588Z,3.5
2019-02-15T01:26:19.453Z,3.3
2019-02-15T01:26:27.399Z,3.3
2019-02-15T01:26:35.278Z,3.3
2019-02-15T01:26:43.186Z,3.4
2019-02-15T01:26:51.076Z,3.4
2019-02-15T01:26:58.960Z,3.5
2019-02-15T01:27:06.860Z,3.4
2019-02-15T01:27:15.754Z,3.3
2019-02-15T01:27:23.638Z,3.5
2019-02-15T01:27:31.526Z,3.5
2019-02-15T01:27:39.424Z,3.4
2019-02-15T01:27:47.320Z,3.6
2019-02-15T01:27:55.188Z,3.5
2019-02-15T01:28:03.087Z,3.5
2019-02-15T01:28:10.972Z,3.5
2019-02-15T01:28:18.885Z,3.5
2019-02-15T01:28:26.762Z,3.5
2019-02-15T01:28:34.677Z,3.5
2019-02-15T01:28:42.558Z,3.6
2019-02-15T01:28:51.448Z,3.6
2019-02-15T01:28:59.332Z,3.5
2019-02-15T01:29:08.193Z,3.3
2019-02-15T01:29:16.068Z,3.4
2019-02-15T01:29:23.948Z,3.4
2019-02-15T01:29:31.875Z,3.3
2019-02-15T01:29:39.731Z,3.2
2019-02-15T01:29:48.612Z,3.2
2019-02-15T01:29:57.491Z,3.3
2019-02-15T01:30:05.404Z,3.4
2019-02-15T01:30:13.290Z,3.6
2019-02-15T01:30:21.182Z,3.4
2019-02-15T01:30:29.143Z,3.5
2019-02-15T01:30:37.014Z,3.5
2019-02-15T01:30:44.903Z,3.4
2019-02-15T01:30:52.789Z,3.4
2019-02-15T01:31:00.662Z,3.5
2019-02-15T01:31:08.542Z,3.4
2019-02-15T01:31:16.406Z,3.4
2019-02-15T01:31:24.295Z,3.5
2019-02-15T01:31:32.162Z,3.5
2019-02-15T01:31:40.055Z,3.7
2019-02-15T01:31:47.939Z,3.6
2019-02-15T01:31:55.821Z,3.6
2019-02-15T01:32:03.709Z,3.6
2019-02-15T01:32:11.584Z,3.5
2019-02-15T01:32:19.478Z,3.5
2019-02-15T01:32:27.344Z,3.5
2019-02-15T01:32:35.234Z,3.5
2019-02-15T01:32:43.115Z,3.5
2019-02-15T01:32:51.992Z,3.4
2019-02-15T01:32:59.889Z,3.4
2019-02-15T01:33:07.763Z,3.5
2019-02-15T01:33:15.658Z,3.6
2019-02-15T01:33:23.531Z,3.6
2019-02-15T01:33:31.402Z,3.6
2019-02-15T01:33:39.278Z,3.6
2019-02-15T01:33:47.156Z,3.7
2019-02-15T01:33:55.044Z,3.5
2019-02-15T01:34:02.950Z,3.5
2019-02-15T01:34:10.838Z,3.5
2019-02-15T01:34:18.706Z,3.5
2019-02-15T01:34:26.637Z,3.8
2019-02-15T01:34:34.506Z,3.7
2019-02-15T01:34:42.393Z,3.6
2019-02-15T01:34:50.278Z,3.7
2019-02-15T01:34:58.150Z,3.4
2019-02-15T01:35:06.010Z,3.6
2019-02-15T01:35:13.891Z,3.6
2019-02-15T01:35:21.796Z,3.4
2019-02-15T01:35:29.695Z,3.4
2019-02-15T01:35:37.567Z,3.2
2019-02-15T01:35:46.418Z,3.3
2019-02-15T01:35:54.299Z,3.3
2019-02-15T01:36:03.164Z,3.4
2019-02-15T01:36:11.032Z,3.3
2019-02-15T01:36:19.911Z,3.5
2019-02-15T01:36:27.816Z,3.5
2019-02-15T01:36:35.693Z,3.5
2019-02-15T01:36:43.580Z,3.6
2019-02-15T01:36:51.429Z,3.6
2019-02-15T01:36:59.297Z,3.5
2019-02-15T01:37:07.164Z,3.5
2019-02-15T01:37:15.052Z,3.4
2019-02-15T01:37:22.938Z,3.3
2019-02-15T01:37:31.797Z,3.3
2019-02-15T01:37:39.724Z,3.3
2019-02-15T01:37:47.607Z,3.4
2019-02-15T01:37:55.513Z,3.6
2019-02-15T01:38:03.421Z,3.4
2019-02-15T01:38:11.297Z,3.6
2019-02-15T01:38:19.166Z,3.5
2019-02-15T01:38:27.064Z,3.4
2019-02-15T01:38:34.955Z,3.5
2019-02-15T01:38:43.813Z,3.4
2019-02-15T01:38:51.720Z,3.3
2019-02-15T01:38:59.603Z,3.3
2019-02-15T01:39:07.485Z,3.1
2019-02-15T01:39:15.338Z,3.1
2019-02-15T01:39:23.209Z,3.3
2019-02-15T01:39:32.073Z,3.5
2019-02-15T01:39:40.945Z,3.7
2019-02-15T01:39:48.834Z,3.6
2019-02-15T01:39:56.697Z,3.5
2019-02-15T01:40:04.575Z,3.5
2019-02-15T01:40:12.455Z,3.4
2019-02-15T01:40:20.331Z,3.4
2019-02-15T01:40:28.191Z,3.4
2019-02-15T01:40:36.139Z,3.3
2019-02-15T01:40:44.012Z,3.3
2019-02-15T01:40:51.895Z,3.3
2019-02-15T01:40:59.786Z,3.3
2019-02-15T01:41:07.658Z,3.2
2019-02-15T01:41:15.572Z,3.2
2019-02-15T01:41:25.458Z,3.2
2019-02-15T01:41:33.329Z,3.3
2019-02-15T01:41:41.215Z,3.5
2019-02-15T01:41:49.079Z,3.6
2019-02-15T01:41:56.956Z,3.6
2019-02-15T01:42:04.883Z,3.5
2019-02-15T01:42:12.772Z,3.3
2019-02-15T01:42:20.656Z,3.3
2019-02-15T01:42:28.518Z,3.4
2019-02-15T01:42:36.388Z,3.4
2019-02-15T01:42:44.271Z,3.6
2019-02-15T01:42:54.142Z,3.5
2019-02-15T01:43:02.028Z,3.6
2019-02-15T01:43:09.899Z,3.6
2019-02-15T01:43:17.798Z,3.4
2019-02-15T01:43:25.682Z,3.6
2019-02-15T01:43:39.968Z,3.5
2019-02-15T01:43:45.409Z,3.7
2019-02-15T01:43:54.289Z,3.7
2019-02-15T01:44:02.195Z,3.6
2019-02-15T01:44:10.059Z,3.4
2019-02-15T01:44:17.949Z,3.4
2019-02-15T01:44:25.809Z,3.4
2019-02-15T01:44:33.708Z,3.6
2019-02-15T01:44:41.581Z,3.6
2019-02-15T01:44:49.452Z,3.7
2019-02-15T01:44:57.330Z,3.5
2019-02-15T01:45:05.243Z,3.4
2019-02-15T01:45:13.128Z,3.2
2019-02-15T01:45:20.989Z,3.3
2019-02-15T01:45:28.858Z,3.3
2019-02-15T01:45:37.762Z,3.6
2019-02-15T01:45:45.674Z,3.6
2019-02-15T01:45:53.580Z,3.7
2019-02-15T01:46:02.431Z,3.4
2019-02-15T01:46:10.319Z,3.4
2019-02-15T01:46:18.223Z,3.5
2019-02-15T01:46:26.122Z,3.5
2019-02-15T01:46:34.027Z,3.6
2019-02-15T01:46:41.948Z,3.6
2019-02-15T01:46:49.838Z,3.6
2019-02-15T01:46:57.721Z,3.5
2019-02-15T01:47:05.602Z,3.4
2019-02-15T01:47:13.453Z,3.4
2019-02-15T01:47:21.336Z,3.4
2019-02-15T01:47:29.251Z,3.4
2019-02-15T01:47:37.145Z,3.4
2019-02-15T01:47:46.001Z,3.5
2019-02-15T01:47:53.867Z,3.4
2019-02-15T01:48:02.740Z,3.7
2019-02-15T01:48:10.615Z,3.5
2019-02-15T01:48:18.489Z,3.6
2019-02-15T01:48:26.358Z,3.6
2019-02-15T01:48:34.240Z,3.5
2019-02-15T01:48:42.118Z,3.5
2019-02-15T01:48:50.005Z,3.3
2019-02-15T01:48:57.881Z,3.1
2019-02-15T01:49:05.754Z,3.2
2019-02-15T01:49:13.635Z,3.2
2019-02-15T01:49:21.502Z,3.2
2019-02-15T01:49:29.395Z,3.2
2019-02-15T01:49:39.246Z,2.9
2019-02-15T01:49:47.149Z,3.2
2019-02-15T01:49:55.006Z,3.5
2019-02-15T01:50:02.898Z,3.6
2019-02-15T01:50:10.767Z,3.8
2019-02-15T01:50:18.635Z,3.8
2019-02-15T01:50:26.488Z,3.8
2019-02-15T01:50:34.446Z,3.9
2019-02-15T01:50:42.265Z,3.9